createdAt,value
2023-02-11T00:01:55.643Z,-1.99
2023-02-11T00:04:24.123Z,-2.06
2023-02-11T00:06:52.644Z,-2.16
2023-02-11T00:09:21.363Z,-2.18
2023-02-11T00:11:49.975Z,-2.17
2023-02-11T00:14:18.486Z,-2.20
2023-02-11T00:16:48.403Z,-2.13
2023-02-11T00:19:17.174Z,-2.15
2023-02-11T00:21:45.746Z,-2.19
2023-02-11T00:24:14.405Z,-2.13
2023-02-11T00:26:43.067Z,-2.22
2023-02-11T00:29:11.750Z,-2.11
2023-02-11T00:31:42.450Z,-2.06
2023-02-11T00:34:12.497Z,-2.03
2023-02-11T00:36:41.739Z,-1.98
2023-02-11T00:39:10.651Z,-1.93
2023-02-11T00:41:39.232Z,-1.91
2023-02-11T00:44:08.815Z,-1.85
2023-02-11T00:46:37.518Z,-1.84
2023-02-11T00:49:06.050Z,-1.81
2023-02-11T00:51:36.085Z,-1.80
2023-02-11T00:54:06.028Z,-1.77
2023-02-11T00:56:35.838Z,-1.71
2023-02-11T00:59:04.463Z,-1.68
2023-02-11T01:01:33.246Z,-1.75
2023-02-11T01:04:02.076Z,-1.80
2023-02-11T01:06:30.672Z,-1.77
2023-02-11T01:09:01.175Z,-1.82
2023-02-11T01:11:29.716Z,-1.99
2023-02-11T01:13:58.218Z,-1.97
2023-02-11T01:16:26.957Z,-1.95
2023-02-11T01:18:55.636Z,-1.95
2023-02-11T01:21:24.170Z,-1.95
2023-02-11T01:23:53.605Z,-1.97
2023-02-11T01:26:23.523Z,-1.91
2023-02-11T01:28:52.242Z,-1.89
2023-02-11T01:31:21.406Z,-1.84
2023-02-11T01:33:50.224Z,-1.80
2023-02-11T01:36:18.741Z,-1.76
2023-02-11T01:38:47.463Z,-1.83
2023-02-11T01:41:16.235Z,-1.78
2023-02-11T01:43:49.215Z,-2.00
2023-02-11T01:46:35.388Z,-1.94
2023-02-11T01:49:10.827Z,-1.90
2023-02-11T01:51:44.956Z,-1.86
2023-02-11T01:54:38.490Z,-1.82
2023-02-11T01:57:25.010Z,-1.78
2023-02-11T02:00:07.831Z,-1.66
2023-02-11T02:02:54.259Z,-1.61
2023-02-11T02:05:36.163Z,-1.67
2023-02-11T02:08:15.120Z,-1.68
2023-02-11T02:10:46.912Z,-1.70
2023-02-11T02:13:18.303Z,-1.61
2023-02-11T02:15:53.988Z,-1.59
2023-02-11T02:18:41.408Z,-1.61
2023-02-11T02:22:14.227Z,-1.61
2023-02-11T02:25:26.234Z,-1.66
2023-02-11T02:28:15.500Z,-1.69
2023-02-11T02:31:24.329Z,-1.74
2023-02-11T02:34:03.486Z,-1.79
2023-02-11T02:36:41.845Z,-1.85
2023-02-11T02:39:18.331Z,-1.84
2023-02-11T02:41:50.175Z,-1.82
2023-02-11T02:44:21.072Z,-1.88
2023-02-11T02:46:50.099Z,-1.93
2023-02-11T02:49:20.264Z,-2.01
2023-02-11T02:52:20.268Z,-2.10
2023-02-11T02:55:19.672Z,-2.15
2023-02-11T02:58:15.486Z,-2.04
2023-02-11T03:00:58.272Z,-2.03
2023-02-11T03:03:38.942Z,-1.97
2023-02-11T03:06:22.581Z,-1.88
2023-02-11T03:09:00.432Z,-1.75
2023-02-11T03:11:30.369Z,-1.65
2023-02-11T03:14:04.469Z,-1.60
2023-02-11T03:16:39.188Z,-1.57
2023-02-11T03:19:15.078Z,-1.61
2023-02-11T03:21:50.070Z,-1.45
2023-02-11T03:24:25.518Z,-1.45
2023-02-11T03:26:58.161Z,-1.48
2023-02-11T03:29:38.545Z,-1.42
2023-02-11T03:32:17.046Z,-1.41
2023-02-11T03:34:54.014Z,-1.34
2023-02-11T03:37:32.317Z,-1.34
2023-02-11T03:40:05.962Z,-1.30
2023-02-11T03:42:41.304Z,-1.17
2023-02-11T03:45:15.385Z,-1.20
2023-02-11T03:47:52.927Z,-1.19
2023-02-11T03:50:24.250Z,-1.19
2023-02-11T03:52:58.054Z,-1.17
2023-02-11T03:55:29.293Z,-1.03
2023-02-11T03:57:58.152Z,-1.18
2023-02-11T04:00:32.293Z,-1.12
2023-02-11T04:03:00.988Z,-1.19
2023-02-11T04:05:29.560Z,-1.21
2023-02-11T04:07:59.508Z,-1.20
2023-02-11T04:10:28.111Z,-1.12
2023-02-11T04:12:56.738Z,-1.16
2023-02-11T04:15:25.918Z,-1.27
2023-02-11T04:17:54.447Z,-1.23
2023-02-11T04:20:22.950Z,-1.29
2023-02-11T04:22:51.620Z,-1.22
2023-02-11T04:25:21.800Z,-1.19
2023-02-11T04:27:50.376Z,-1.20
2023-02-11T04:30:19.485Z,-1.19
2023-02-11T04:32:47.998Z,-1.08
2023-02-11T04:35:16.578Z,-1.06
2023-02-11T04:37:45.141Z,-1.00
2023-02-11T04:40:14.180Z,-1.06
2023-02-11T04:42:44.135Z,-1.00
2023-02-11T04:45:12.672Z,-0.96
2023-02-11T04:47:41.228Z,-1.06
2023-02-11T04:50:10.251Z,-1.04
2023-02-11T04:52:38.802Z,-1.05
2023-02-11T04:55:08.358Z,-1.12
2023-02-11T04:57:37.016Z,-1.04
2023-02-11T05:00:09.973Z,-1.11
2023-02-11T05:02:38.649Z,-1.23
2023-02-11T05:05:07.652Z,-1.20
2023-02-11T05:07:36.219Z,-1.18
2023-02-11T05:10:05.368Z,-1.04
2023-02-11T05:12:33.988Z,-1.03
2023-02-11T05:15:02.605Z,-1.05
2023-02-11T05:17:32.522Z,-0.98
2023-02-11T05:20:01.057Z,-0.91
2023-02-11T05:22:29.630Z,-0.88
2023-02-11T05:24:58.267Z,-0.77
2023-02-11T05:27:27.046Z,-0.72
2023-02-11T05:29:55.623Z,-0.66
2023-02-11T05:32:24.306Z,-0.72
2023-02-11T05:34:54.185Z,-0.56
2023-02-11T05:37:22.709Z,-0.58
2023-02-11T05:39:51.421Z,-0.61
2023-02-11T05:42:20.001Z,-0.62
2023-02-11T05:44:50.532Z,-0.70
2023-02-11T05:47:19.175Z,-0.72
2023-02-11T05:49:47.896Z,-0.78
2023-02-11T05:52:17.849Z,-0.77
2023-02-11T05:54:46.333Z,-0.74
2023-02-11T05:57:15.323Z,-0.65
2023-02-11T05:59:44.146Z,-0.67
2023-02-11T06:02:13.848Z,-0.69
2023-02-11T06:04:42.541Z,-0.64
2023-02-11T06:07:11.150Z,-0.64
2023-02-11T06:09:41.228Z,-0.62
2023-02-11T06:12:09.833Z,-0.55
2023-02-11T06:14:38.462Z,-0.52
2023-02-11T06:17:07.114Z,-0.51
2023-02-11T06:19:35.808Z,-0.50
2023-02-11T06:22:04.705Z,-0.57
2023-02-11T06:24:58.489Z,-0.44
2023-02-11T06:27:23.758Z,-0.48
2023-02-11T06:29:52.896Z,-0.52
2023-02-11T06:32:42.352Z,-0.53
2023-02-11T06:35:12.067Z,-0.38
2023-02-11T06:37:41.404Z,-0.37
2023-02-11T06:40:10.573Z,-0.33
2023-02-11T06:42:40.619Z,-0.28
2023-02-11T06:45:11.079Z,-0.19
2023-02-11T06:47:40.249Z,-0.17
2023-02-11T06:50:13.418Z,-0.19
2023-02-11T06:52:42.994Z,-0.22
2023-02-11T06:55:11.662Z,-0.32
2023-02-11T06:57:41.657Z,-0.13
2023-02-11T07:00:12.302Z,-0.12
2023-02-11T07:02:41.003Z,0.01
2023-02-11T07:05:10.429Z,0.05
2023-02-11T07:07:39.120Z,-0.04
2023-02-11T07:10:08.659Z,-0.11
2023-02-11T07:12:37.214Z,-0.13
2023-02-11T07:15:08.113Z,0.02
2023-02-11T07:17:37.574Z,0.02
2023-02-11T07:20:07.266Z,0.05
2023-02-11T07:22:36.041Z,0.10
2023-02-11T07:25:05.109Z,0.06
2023-02-11T07:27:34.062Z,0.24
2023-02-11T07:30:03.785Z,0.32
2023-02-11T07:32:34.799Z,0.41
2023-02-11T07:35:03.918Z,0.39
2023-02-11T07:37:34.684Z,0.62
2023-02-11T07:40:03.612Z,0.75
2023-02-11T07:42:32.352Z,0.96
2023-02-11T07:45:01.073Z,1.07
2023-02-11T07:47:29.774Z,1.22
2023-02-11T07:49:59.817Z,1.35
2023-02-11T07:52:31.357Z,1.55
2023-02-11T07:54:59.971Z,1.89
2023-02-11T07:57:28.848Z,1.94
2023-02-11T07:59:57.445Z,1.98
2023-02-11T08:02:26.300Z,2.03
2023-02-11T08:04:55.140Z,1.97
2023-02-11T08:07:26.119Z,1.81
2023-02-11T08:09:55.585Z,1.93
2023-02-11T08:12:24.131Z,2.12
2023-02-11T08:14:52.780Z,1.98
2023-02-11T08:17:21.322Z,2.01
2023-02-11T08:19:49.995Z,2.29
2023-02-11T08:22:18.646Z,2.47
2023-02-11T08:24:51.321Z,2.47
2023-02-11T08:27:20.888Z,2.53
2023-02-11T08:29:49.564Z,2.50
2023-02-11T08:32:18.190Z,2.30
2023-02-11T08:34:46.931Z,2.40
2023-02-11T08:37:15.529Z,2.49
2023-02-11T08:39:44.501Z,2.56
2023-02-11T08:42:15.567Z,2.51
2023-02-11T08:44:44.911Z,2.51
2023-02-11T08:47:13.562Z,2.68
2023-02-11T08:49:42.495Z,3.26
2023-02-11T08:52:11.153Z,3.64
2023-02-11T08:54:39.775Z,4.29
2023-02-11T08:57:08.554Z,4.15
2023-02-11T08:59:40.039Z,3.94
2023-02-11T09:02:12.861Z,4.18
2023-02-11T09:04:42.364Z,4.37
2023-02-11T09:07:12.644Z,4.60
2023-02-11T09:09:41.282Z,4.85
2023-02-11T09:12:09.807Z,4.84
2023-02-11T09:14:39.936Z,4.70
2023-02-11T09:17:09.955Z,4.71
2023-02-11T09:19:38.650Z,4.71
2023-02-11T09:22:07.512Z,4.50
2023-02-11T09:24:36.221Z,4.35
2023-02-11T09:27:05.091Z,4.11
2023-02-11T09:29:33.681Z,3.92
2023-02-11T09:32:03.812Z,3.67
2023-02-11T09:34:32.479Z,3.82
2023-02-11T09:37:01.109Z,3.66
2023-02-11T09:39:30.101Z,3.80
2023-02-11T09:42:49.021Z,3.30
2023-02-11T09:45:23.339Z,3.41
2023-02-11T09:47:59.040Z,3.60
2023-02-11T09:50:33.988Z,3.78
2023-02-11T09:53:07.964Z,3.84
2023-02-11T09:55:42.601Z,3.90
2023-02-11T09:58:15.816Z,3.68
2023-02-11T10:00:52.445Z,3.62
2023-02-11T10:04:01.919Z,3.62
2023-02-11T10:06:46.405Z,3.45
2023-02-11T10:09:47.443Z,3.55
2023-02-11T10:12:39.997Z,3.74
2023-02-11T10:15:24.021Z,3.94
2023-02-11T10:18:23.317Z,4.03
2023-02-11T10:21:14.961Z,4.24
2023-02-11T10:23:52.737Z,4.65
2023-02-11T10:26:22.073Z,4.66
2023-02-11T10:28:56.075Z,4.78
2023-02-11T10:31:30.469Z,4.83
2023-02-11T10:34:04.145Z,4.75
2023-02-11T10:36:37.202Z,4.96
2023-02-11T10:39:14.678Z,4.87
2023-02-11T10:41:47.144Z,5.04
2023-02-11T10:44:28.620Z,4.90
2023-02-11T10:47:00.655Z,5.05
2023-02-11T10:49:40.350Z,5.31
2023-02-11T10:52:23.938Z,5.39
2023-02-11T10:55:07.382Z,5.42
2023-02-11T10:57:39.143Z,5.43
2023-02-11T11:00:29.700Z,5.38
2023-02-11T11:03:02.349Z,5.42
2023-02-11T11:05:36.506Z,5.52
2023-02-11T11:08:10.073Z,5.23
2023-02-11T11:10:44.176Z,5.27
2023-02-11T11:13:32.387Z,5.29
2023-02-11T11:16:24.002Z,5.38
2023-02-11T11:18:55.514Z,5.48
2023-02-11T11:21:27.646Z,5.75
2023-02-11T11:24:01.866Z,5.59
2023-02-11T11:26:42.618Z,5.44
2023-02-11T11:29:16.349Z,5.60
2023-02-11T11:31:56.949Z,5.47
2023-02-11T11:34:32.764Z,5.41
2023-02-11T11:37:11.369Z,5.41
2023-02-11T11:39:42.290Z,5.55
2023-02-11T11:42:27.962Z,5.46
2023-02-11T11:45:03.156Z,5.67
2023-02-11T11:47:41.953Z,5.76
2023-02-11T11:50:31.754Z,6.02
2023-02-11T11:53:06.126Z,5.87
2023-02-11T11:55:44.878Z,5.99
2023-02-11T11:58:19.196Z,6.08
2023-02-11T12:01:01.212Z,6.05
2023-02-11T12:04:07.755Z,6.47
2023-02-11T12:06:51.097Z,6.57
2023-02-11T12:09:34.002Z,6.75
2023-02-11T12:12:27.696Z,6.86
2023-02-11T12:15:14.815Z,6.71
2023-02-11T12:18:08.678Z,6.85
2023-02-11T12:21:03.450Z,7.39
2023-02-11T12:23:51.575Z,7.53
2023-02-11T12:26:24.576Z,7.63
2023-02-11T12:29:14.954Z,8.10
2023-02-11T12:32:03.006Z,8.29
2023-02-11T12:35:09.408Z,8.17
2023-02-11T12:37:59.587Z,8.40
2023-02-11T12:40:44.003Z,8.32
2023-02-11T12:43:21.947Z,8.24
2023-02-11T12:46:40.450Z,8.18
2023-02-11T12:49:46.677Z,8.11
2023-02-11T12:52:34.788Z,7.71
2023-02-11T12:55:17.434Z,7.26
2023-02-11T12:57:51.190Z,7.54
2023-02-11T13:00:25.705Z,7.50
2023-02-11T13:03:04.503Z,7.20
2023-02-11T13:05:40.197Z,7.19
2023-02-11T13:08:17.529Z,6.81
2023-02-11T13:10:54.830Z,6.81
2023-02-11T13:13:30.570Z,6.61
2023-02-11T13:16:07.675Z,6.55
2023-02-11T13:18:49.522Z,6.33
2023-02-11T13:21:52.637Z,6.20
2023-02-11T13:24:35.912Z,6.20
2023-02-11T13:27:20.128Z,6.51
2023-02-11T13:30:24.477Z,6.69
2023-02-11T13:33:22.648Z,6.42
2023-02-11T13:36:25.164Z,6.65
2023-02-11T13:38:59.791Z,6.56
2023-02-11T13:41:41.576Z,6.78
2023-02-11T13:44:28.380Z,6.82
2023-02-11T13:47:02.165Z,6.86
2023-02-11T13:49:40.883Z,7.03
2023-02-11T13:52:27.082Z,7.20
2023-02-11T13:55:03.243Z,7.23
2023-02-11T13:57:41.195Z,7.07
2023-02-11T14:00:50.372Z,7.28
2023-02-11T14:03:53.551Z,7.04
2023-02-11T14:06:46.821Z,7.29
2023-02-11T14:09:57.268Z,7.09
2023-02-11T14:12:36.725Z,7.16
2023-02-11T14:15:39.131Z,7.20
2023-02-11T14:18:38.568Z,7.20
2023-02-11T14:21:15.528Z,7.25
2023-02-11T14:23:45.153Z,7.23
2023-02-11T14:26:46.027Z,7.11
2023-02-11T14:29:22.673Z,7.34
2023-02-11T14:32:06.133Z,7.34
2023-02-11T14:34:52.577Z,7.17
2023-02-11T14:37:38.233Z,7.34
2023-02-11T14:40:25.610Z,7.24
2023-02-11T14:42:58.433Z,7.01
2023-02-11T14:45:31.097Z,6.99
2023-02-11T14:48:08.238Z,7.25
2023-02-11T14:50:47.219Z,7.45
2023-02-11T14:53:20.577Z,7.52
2023-02-11T14:55:52.364Z,7.58
2023-02-11T14:58:25.827Z,7.47
2023-02-11T15:00:59.110Z,7.20
2023-02-11T15:03:36.013Z,7.08
2023-02-11T15:06:14.130Z,7.00
2023-02-11T15:08:51.198Z,6.67
2023-02-11T15:11:23.496Z,6.47
2023-02-11T15:13:55.549Z,6.32
2023-02-11T15:16:27.307Z,6.24
2023-02-11T15:19:02.143Z,6.20
2023-02-11T15:21:34.488Z,6.04
2023-02-11T15:24:07.068Z,5.87
2023-02-11T15:26:36.016Z,5.80
2023-02-11T15:29:17.207Z,5.90
2023-02-11T15:31:45.913Z,5.73
2023-02-11T15:34:14.668Z,5.69
2023-02-11T15:36:43.858Z,5.77
2023-02-11T15:39:31.589Z,5.66
2023-02-11T15:42:23.668Z,5.64
2023-02-11T15:45:23.872Z,5.55
2023-02-11T15:47:55.451Z,5.57
2023-02-11T15:50:27.195Z,5.54
2023-02-11T15:52:58.614Z,5.36
2023-02-11T15:55:30.260Z,5.35
2023-02-11T15:58:02.739Z,5.36
2023-02-11T16:00:38.886Z,5.32
2023-02-11T16:03:07.728Z,5.34
2023-02-11T16:05:40.603Z,5.32
2023-02-11T16:08:24.548Z,5.25
2023-02-11T16:11:02.469Z,5.26
2023-02-11T16:13:33.791Z,5.22
2023-02-11T16:16:06.991Z,5.09
2023-02-11T16:18:40.180Z,5.04
2023-02-11T16:21:17.744Z,5.04
2023-02-11T16:23:54.323Z,4.95
2023-02-11T16:26:30.108Z,4.97
2023-02-11T16:29:14.025Z,4.99
2023-02-11T16:31:48.680Z,4.91
2023-02-11T16:34:19.894Z,4.84
2023-02-11T16:36:49.594Z,4.81
2023-02-11T16:39:21.633Z,4.84
2023-02-11T16:41:52.022Z,4.80
2023-02-11T16:44:20.543Z,4.78
2023-02-11T16:46:50.957Z,4.76
2023-02-11T16:49:24.523Z,4.80
2023-02-11T16:51:56.895Z,4.67
2023-02-11T16:54:25.566Z,4.67
2023-02-11T16:56:55.934Z,4.68
2023-02-11T16:59:24.972Z,4.57
2023-02-11T17:01:56.001Z,4.61
2023-02-11T17:04:31.210Z,4.64
2023-02-11T17:06:59.997Z,4.68
2023-02-11T17:09:31.117Z,4.63
2023-02-11T17:12:00.269Z,4.51
2023-02-11T17:14:29.203Z,4.51
2023-02-11T17:16:59.567Z,4.53
2023-02-11T17:19:28.263Z,4.52
2023-02-11T17:21:56.868Z,4.50
2023-02-11T17:24:25.518Z,4.54
2023-02-11T17:26:54.829Z,4.52
2023-02-11T17:29:26.159Z,4.46
2023-02-11T17:31:55.277Z,4.53
2023-02-11T17:34:39.163Z,4.46
2023-02-11T17:37:09.317Z,4.39
2023-02-11T17:39:39.383Z,4.53
2023-02-11T17:42:08.955Z,4.50
2023-02-11T17:44:37.504Z,4.46
2023-02-11T17:47:06.212Z,4.44
2023-02-11T17:49:37.370Z,4.49
2023-02-11T17:52:06.178Z,4.44
2023-02-11T17:54:34.953Z,4.40
2023-02-11T17:57:03.692Z,4.45
2023-02-11T17:59:35.468Z,4.41
2023-02-11T18:02:05.043Z,4.40
2023-02-11T18:04:35.200Z,4.51
2023-02-11T18:07:03.906Z,4.52
2023-02-11T18:09:32.554Z,4.49
2023-02-11T18:12:01.076Z,4.59
2023-02-11T18:14:29.837Z,4.49
2023-02-11T18:16:58.471Z,4.40
2023-02-11T18:19:30.485Z,4.36
2023-02-11T18:22:01.246Z,4.37
2023-02-11T18:24:29.894Z,4.40
2023-02-11T18:26:58.478Z,4.42
2023-02-11T18:29:27.199Z,4.32
2023-02-11T18:31:59.187Z,4.42
2023-02-11T18:34:28.042Z,4.38
2023-02-11T18:36:59.791Z,4.46
2023-02-11T18:39:30.018Z,4.44
2023-02-11T18:41:59.623Z,4.48
2023-02-11T18:44:28.538Z,4.45
2023-02-11T18:46:57.130Z,4.40
2023-02-11T18:49:25.676Z,4.46
2023-02-11T18:51:54.857Z,4.36
2023-02-11T18:54:23.369Z,4.43
2023-02-11T18:56:53.270Z,4.41
2023-02-11T18:59:21.784Z,4.42
2023-02-11T19:01:51.098Z,4.47
2023-02-11T19:04:20.209Z,4.48
2023-02-11T19:06:50.342Z,4.47
2023-02-11T19:09:21.390Z,4.38
2023-02-11T19:11:50.461Z,4.38
2023-02-11T19:14:24.593Z,4.44
2023-02-11T19:16:55.889Z,4.51
2023-02-11T19:19:28.180Z,4.43
2023-02-11T19:21:57.965Z,4.49
2023-02-11T19:24:27.706Z,4.45
2023-02-11T19:27:00.107Z,4.34
2023-02-11T19:29:32.095Z,4.39
2023-02-11T19:32:00.927Z,4.38
2023-02-11T19:34:29.780Z,4.41
2023-02-11T19:36:59.755Z,4.43
2023-02-11T19:39:28.456Z,4.50
2023-02-11T19:41:57.036Z,4.55
2023-02-11T19:44:25.647Z,4.48
2023-02-11T19:46:55.628Z,4.41
2023-02-11T19:49:25.989Z,4.43
2023-02-11T19:51:58.134Z,4.38
2023-02-11T19:54:29.082Z,4.37
2023-02-11T19:56:58.614Z,4.43
2023-02-11T19:59:27.157Z,4.38
2023-02-11T20:01:57.650Z,4.41
2023-02-11T20:04:26.436Z,4.59
2023-02-11T20:06:54.974Z,4.57
2023-02-11T20:09:23.542Z,4.49
2023-02-11T20:11:52.127Z,4.46
2023-02-11T20:14:21.108Z,4.51
2023-02-11T20:16:50.209Z,4.50
2023-02-11T20:19:22.811Z,4.47
2023-02-11T20:21:55.668Z,4.45
2023-02-11T20:24:26.502Z,4.45
2023-02-11T20:26:56.511Z,4.50
2023-02-11T20:29:26.544Z,4.48
2023-02-11T20:31:55.816Z,4.49
2023-02-11T20:34:25.966Z,4.53
2023-02-11T20:36:54.913Z,4.57
2023-02-11T20:39:25.187Z,4.53
2023-02-11T20:41:54.826Z,4.51
2023-02-11T20:44:24.632Z,4.48
2023-02-11T20:46:56.033Z,4.44
2023-02-11T20:49:28.318Z,4.43
2023-02-11T20:51:58.459Z,4.45
2023-02-11T20:54:27.356Z,4.41
2023-02-11T20:56:57.036Z,4.36
2023-02-11T20:59:26.972Z,4.40
2023-02-11T21:01:57.825Z,4.37
2023-02-11T21:04:30.396Z,4.39
2023-02-11T21:07:02.200Z,4.41
2023-02-11T21:09:33.683Z,4.41
2023-02-11T21:12:03.858Z,4.39
2023-02-11T21:14:32.586Z,4.38
2023-02-11T21:17:01.146Z,4.43
2023-02-11T21:19:31.102Z,4.41
2023-02-11T21:22:00.925Z,4.47
2023-02-11T21:24:30.842Z,4.44
2023-02-11T21:26:59.801Z,4.43
2023-02-11T21:29:28.269Z,4.41
2023-02-11T21:31:56.990Z,4.41
2023-02-11T21:34:26.036Z,4.42
2023-02-11T21:36:55.953Z,4.53
2023-02-11T21:39:24.540Z,4.56
2023-02-11T21:41:53.386Z,4.48
2023-02-11T21:44:21.922Z,4.48
2023-02-11T21:46:50.587Z,4.53
2023-02-11T21:49:21.315Z,4.47
2023-02-11T21:51:50.055Z,4.45
2023-02-11T21:54:20.148Z,4.45
2023-02-11T21:56:51.796Z,4.59
2023-02-11T21:59:20.364Z,4.56
2023-02-11T22:01:48.926Z,4.48
2023-02-11T22:04:18.173Z,4.49
2023-02-11T22:06:46.793Z,4.66
2023-02-11T22:09:15.442Z,4.53
2023-02-11T22:11:45.471Z,4.35
2023-02-11T22:14:14.168Z,4.47
2023-02-11T22:16:45.881Z,4.42
2023-02-11T22:19:14.816Z,4.53
2023-02-11T22:21:44.254Z,4.69
2023-02-11T22:24:13.069Z,4.70
2023-02-11T22:26:41.705Z,4.66
2023-02-11T22:29:12.344Z,4.67
2023-02-11T22:31:41.098Z,4.67
2023-02-11T22:34:09.964Z,4.66
2023-02-11T22:36:41.195Z,4.61
2023-02-11T22:39:14.120Z,4.62
2023-02-11T22:41:44.563Z,4.82
2023-02-11T22:44:16.344Z,4.79
2023-02-11T22:46:45.479Z,4.61
2023-02-11T22:49:17.444Z,4.48
2023-02-11T22:51:46.902Z,4.63
2023-02-11T22:54:17.731Z,4.54
2023-02-11T22:56:50.961Z,4.82
2023-02-11T22:59:21.868Z,4.73
2023-02-11T23:01:50.890Z,4.73
2023-02-11T23:04:20.865Z,4.58
2023-02-11T23:06:49.985Z,4.62
2023-02-11T23:09:18.540Z,4.76
2023-02-11T23:11:48.565Z,4.79
2023-02-11T23:14:17.179Z,4.82
2023-02-11T23:16:47.132Z,4.70
2023-02-11T23:19:17.052Z,4.68
2023-02-11T23:21:45.756Z,4.90
2023-02-11T23:24:16.165Z,4.86
2023-02-11T23:26:45.362Z,4.78
2023-02-11T23:29:14.443Z,4.84
2023-02-11T23:31:46.577Z,4.82
2023-02-11T23:34:20.351Z,4.90
2023-02-11T23:36:48.879Z,4.91
2023-02-11T23:39:17.930Z,4.90
2023-02-11T23:41:47.235Z,4.91
2023-02-11T23:44:15.771Z,4.96
2023-02-11T23:46:44.416Z,4.91
2023-02-11T23:49:15.598Z,4.82
2023-02-11T23:51:44.231Z,4.61
2023-02-11T23:54:15.879Z,4.59
2023-02-11T23:56:44.548Z,4.53
2023-02-11T23:59:13.326Z,4.59
